createdAt,value
2019-01-26T00:00:44.394Z,24.20
2019-01-26T00:03:11.685Z,21.77
2019-01-26T00:05:38.923Z,14.67
2019-01-26T00:08:06.254Z,14.47
2019-01-26T00:10:33.507Z,21.77
2019-01-26T00:13:00.778Z,19.63
2019-01-26T00:15:28.102Z,18.63
2019-01-26T00:17:55.363Z,23.83
2019-01-26T00:20:22.631Z,26.20
2019-01-26T00:22:49.911Z,21.67
2019-01-26T00:25:17.181Z,23.53
2019-01-26T00:27:44.431Z,21.87
2019-01-26T00:30:13.381Z,34.03
2019-01-26T00:32:40.618Z,22.40
2019-01-26T00:35:09.768Z,26.83
2019-01-26T00:37:37.040Z,29.43
2019-01-26T00:40:05.866Z,31.97
2019-01-26T00:42:33.138Z,27.47
2019-01-26T00:45:00.406Z,23.67
2019-01-26T00:47:27.705Z,26.03
2019-01-26T00:49:54.954Z,30.00
2019-01-26T00:52:22.240Z,26.73
2019-01-26T00:54:49.526Z,33.03
2019-01-26T00:57:16.799Z,33.10
2019-01-26T00:59:44.082Z,29.50
2019-01-26T01:02:11.338Z,31.00
2019-01-26T01:04:38.679Z,35.63
2019-01-26T01:07:05.966Z,27.13
2019-01-26T01:09:33.212Z,31.33
2019-01-26T01:12:00.499Z,33.13
2019-01-26T01:14:27.775Z,38.73
2019-01-26T01:16:55.061Z,36.53
2019-01-26T01:19:22.342Z,36.17
2019-01-26T01:21:49.714Z,32.20
2019-01-26T01:24:18.764Z,32.07
2019-01-26T01:26:46.027Z,33.67
2019-01-26T01:29:13.298Z,33.07
2019-01-26T01:31:40.569Z,37.10
2019-01-26T01:34:07.838Z,39.77
2019-01-26T01:36:35.110Z,40.30
2019-01-26T01:39:03.926Z,36.10
2019-01-26T01:41:31.270Z,35.90
2019-01-26T01:43:58.506Z,38.97
2019-01-26T01:46:25.800Z,39.77
2019-01-26T01:48:53.045Z,37.67
2019-01-26T01:51:20.378Z,36.23
2019-01-26T01:53:47.645Z,38.70
2019-01-26T01:56:14.995Z,37.33
2019-01-26T01:58:42.278Z,37.17
2019-01-26T02:01:11.114Z,32.30
2019-01-26T02:03:38.385Z,38.37
2019-01-26T02:06:05.668Z,38.17
2019-01-26T02:08:32.942Z,36.60
2019-01-26T02:11:00.227Z,36.50
2019-01-26T02:13:27.478Z,35.70
2019-01-26T02:15:54.756Z,33.43
2019-01-26T02:18:22.014Z,39.07
2019-01-26T02:20:49.281Z,42.80
2019-01-26T02:23:16.573Z,33.93
2019-01-26T02:25:43.833Z,38.97
2019-01-26T02:28:11.130Z,40.97
2019-01-26T02:30:38.431Z,31.07
2019-01-26T02:33:05.724Z,43.80
2019-01-26T02:35:33.034Z,38.63
2019-01-26T02:38:00.331Z,34.47
2019-01-26T02:40:27.602Z,42.07
2019-01-26T02:42:54.894Z,34.30
2019-01-26T02:45:22.153Z,35.33
2019-01-26T02:47:49.459Z,36.13
2019-01-26T02:50:19.654Z,33.93
2019-01-26T02:52:46.927Z,27.03
2019-01-26T02:55:15.721Z,29.60
2019-01-26T02:57:42.977Z,35.60
2019-01-26T03:00:11.779Z,35.50
2019-01-26T03:02:39.026Z,37.70
2019-01-26T03:05:07.846Z,36.20
2019-01-26T03:07:35.099Z,48.30
2019-01-26T03:10:02.378Z,26.43
2019-01-26T03:12:29.635Z,29.97
2019-01-26T03:14:56.920Z,35.40
2019-01-26T03:17:24.206Z,34.67
2019-01-26T03:19:51.468Z,34.27
2019-01-26T03:22:18.766Z,33.37
2019-01-26T03:24:46.042Z,32.13
2019-01-26T03:27:13.302Z,33.70
2019-01-26T03:29:40.562Z,27.67
2019-01-26T03:32:07.820Z,26.87
2019-01-26T03:34:35.093Z,22.27
2019-01-26T03:37:02.346Z,29.57
2019-01-26T03:39:29.646Z,30.23
2019-01-26T03:41:57.082Z,25.57
2019-01-26T03:44:24.349Z,29.30
2019-01-26T03:46:51.631Z,24.73
2019-01-26T03:49:18.881Z,22.93
2019-01-26T03:51:46.127Z,25.50
2019-01-26T03:54:13.402Z,15.83
2019-01-26T03:56:41.430Z,20.27
2019-01-26T03:59:08.718Z,18.90
2019-01-26T04:01:36.053Z,15.77
2019-01-26T04:04:03.367Z,16.23
2019-01-26T04:06:30.638Z,21.67
2019-01-26T04:08:57.974Z,25.93
2019-01-26T04:11:25.257Z,15.40
2019-01-26T04:13:52.508Z,21.07
2019-01-26T04:16:19.855Z,15.57
2019-01-26T04:18:47.142Z,23.97
2019-01-26T04:21:14.414Z,15.47
2019-01-26T04:23:41.679Z,21.37
2019-01-26T04:26:08.938Z,20.60
2019-01-26T04:28:36.226Z,16.00
2019-01-26T04:31:03.581Z,14.77
2019-01-26T04:33:30.844Z,21.47
2019-01-26T04:35:58.127Z,15.53
2019-01-26T04:38:25.375Z,14.70
2019-01-26T04:40:52.663Z,17.80
2019-01-26T04:43:19.910Z,23.03
2019-01-26T04:45:47.207Z,23.83
2019-01-26T04:48:14.452Z,20.37
2019-01-26T04:50:42.536Z,20.40
2019-01-26T04:53:10.789Z,20.57
2019-01-26T04:55:38.042Z,19.07
2019-01-26T04:58:05.390Z,14.93
2019-01-26T05:00:33.358Z,16.43
2019-01-26T05:03:00.623Z,15.97
2019-01-26T05:05:27.859Z,17.50
2019-01-26T05:07:55.142Z,19.87
2019-01-26T05:10:22.481Z,26.33
2019-01-26T05:12:51.272Z,14.13
2019-01-26T05:15:20.084Z,22.03
2019-01-26T05:17:47.425Z,16.73
2019-01-26T05:20:16.556Z,17.00
2019-01-26T05:22:43.825Z,17.87
2019-01-26T05:25:11.164Z,22.33
2019-01-26T05:27:38.434Z,22.83
2019-01-26T05:30:07.243Z,25.83
2019-01-26T05:32:34.543Z,19.63
2019-01-26T05:35:01.788Z,21.67
2019-01-26T05:37:29.064Z,24.73
2019-01-26T05:39:56.315Z,22.03
2019-01-26T05:42:23.567Z,15.53
2019-01-26T05:44:50.845Z,20.57
2019-01-26T05:47:18.124Z,15.93
2019-01-26T05:49:45.406Z,15.93
2019-01-26T05:52:12.647Z,17.27
2019-01-26T05:54:39.936Z,19.30
2019-01-26T05:57:07.185Z,19.77
2019-01-26T05:59:34.472Z,27.37
2019-01-26T06:02:01.739Z,23.80
2019-01-26T06:04:29.059Z,18.67
2019-01-26T06:06:56.317Z,21.03
2019-01-26T06:09:23.617Z,14.67
2019-01-26T06:11:50.899Z,15.80
2019-01-26T06:14:18.156Z,12.87
2019-01-26T06:16:45.496Z,15.73
2019-01-26T06:19:12.739Z,18.27
2019-01-26T06:21:40.068Z,15.70
2019-01-26T06:24:07.310Z,16.87
2019-01-26T06:26:34.614Z,17.47
2019-01-26T06:29:01.870Z,15.37
2019-01-26T06:31:29.123Z,19.10
2019-01-26T06:33:56.400Z,22.03
2019-01-26T06:36:23.686Z,14.57
2019-01-26T06:38:50.970Z,20.13
2019-01-26T06:41:18.238Z,16.80
2019-01-26T06:43:45.567Z,16.83
2019-01-26T06:46:12.811Z,16.67
2019-01-26T06:48:40.145Z,15.07
2019-01-26T06:51:07.400Z,15.10
2019-01-26T06:53:34.697Z,16.93
2019-01-26T06:56:02.032Z,15.27
2019-01-26T06:58:29.312Z,21.00
2019-01-26T07:00:56.559Z,15.40
2019-01-26T07:03:23.848Z,24.27
2019-01-26T07:05:55.694Z,16.23
2019-01-26T07:08:22.959Z,12.43
2019-01-26T07:10:50.199Z,14.87
2019-01-26T07:13:17.471Z,24.60
2019-01-26T07:15:44.806Z,20.17
2019-01-26T07:18:13.630Z,20.10
2019-01-26T07:20:40.888Z,15.43
2019-01-26T07:23:08.145Z,14.87
2019-01-26T07:25:35.406Z,8.87
2019-01-26T07:28:02.655Z,11.33
2019-01-26T07:30:29.976Z,12.57
2019-01-26T07:32:57.263Z,13.53
2019-01-26T07:35:24.519Z,7.80
2019-01-26T07:37:51.802Z,16.63
2019-01-26T07:40:20.584Z,14.10
2019-01-26T07:42:47.870Z,11.30
2019-01-26T07:45:15.119Z,15.77
2019-01-26T07:47:42.447Z,15.20
2019-01-26T07:50:11.259Z,16.70
2019-01-26T07:52:38.542Z,11.77
2019-01-26T07:55:07.354Z,16.80
2019-01-26T07:57:34.610Z,17.13
2019-01-26T08:00:01.862Z,17.00
2019-01-26T08:02:30.764Z,11.80
2019-01-26T08:04:58.059Z,11.37
2019-01-26T08:07:25.322Z,14.40
2019-01-26T08:09:52.595Z,14.37
2019-01-26T08:12:19.887Z,16.80
2019-01-26T08:14:47.158Z,10.07
2019-01-26T08:17:14.487Z,15.97
2019-01-26T08:19:41.739Z,30.03
2019-01-26T08:22:09.074Z,17.27
2019-01-26T08:24:36.351Z,19.10
2019-01-26T08:27:03.602Z,18.43
2019-01-26T08:29:30.845Z,26.97
2019-01-26T08:31:58.139Z,25.67
2019-01-26T08:34:25.438Z,20.47
2019-01-26T08:36:52.682Z,18.57
2019-01-26T08:39:19.934Z,18.70
2019-01-26T08:41:47.203Z,22.33
2019-01-26T08:44:14.457Z,22.70
2019-01-26T08:46:41.747Z,17.17
2019-01-26T08:49:09.003Z,28.40
2019-01-26T08:51:36.266Z,20.90
2019-01-26T08:54:05.075Z,20.43
2019-01-26T08:56:32.432Z,21.33
2019-01-26T08:58:59.721Z,21.37
2019-01-26T09:01:26.954Z,22.53
2019-01-26T09:03:55.891Z,19.27
2019-01-26T09:06:24.798Z,22.90
2019-01-26T09:08:52.051Z,22.07
2019-01-26T09:11:19.315Z,19.73
2019-01-26T09:13:46.602Z,21.17
2019-01-26T09:16:13.873Z,18.47
2019-01-26T09:18:41.161Z,17.03
2019-01-26T09:21:08.519Z,24.70
2019-01-26T09:23:35.786Z,22.73
2019-01-26T09:26:03.133Z,16.83
2019-01-26T09:28:32.047Z,20.47
2019-01-26T09:30:59.300Z,18.73
2019-01-26T09:33:26.572Z,18.07
2019-01-26T09:35:53.847Z,25.50
2019-01-26T09:38:21.130Z,20.43
2019-01-26T09:40:48.409Z,22.17
2019-01-26T09:43:15.714Z,25.67
2019-01-26T09:45:42.972Z,29.00
2019-01-26T09:48:10.238Z,25.47
2019-01-26T09:50:37.506Z,28.17
2019-01-26T09:53:06.293Z,27.53
2019-01-26T09:55:33.571Z,21.43
2019-01-26T09:58:00.823Z,26.33
2019-01-26T10:00:28.354Z,19.13
2019-01-26T10:02:55.691Z,26.57
2019-01-26T10:05:23.031Z,26.33
2019-01-26T10:07:50.299Z,22.47
2019-01-26T10:10:19.134Z,23.83
2019-01-26T10:12:46.496Z,28.83
2019-01-26T10:15:15.735Z,24.73
2019-01-26T10:17:47.910Z,19.83
2019-01-26T10:20:16.775Z,26.63
2019-01-26T10:22:44.030Z,34.47
2019-01-26T10:25:12.810Z,17.20
2019-01-26T10:27:40.080Z,16.40
2019-01-26T10:30:08.887Z,19.37
2019-01-26T10:32:36.184Z,20.33
2019-01-26T10:35:04.987Z,23.83
